createdAt,value
2019-05-01T00:01:35.238Z,78.50
2019-05-01T00:03:28.436Z,78.81
2019-05-01T00:05:19.082Z,79.58
2019-05-01T00:06:56.072Z,79.49
2019-05-01T00:08:30.852Z,79.65
2019-05-01T00:10:06.920Z,79.65
2019-05-01T00:11:42.057Z,79.85
2019-05-01T00:13:17.000Z,79.51
2019-05-01T00:14:51.852Z,79.02
2019-05-01T00:16:26.496Z,79.14
2019-05-01T00:18:01.345Z,79.66
2019-05-01T00:19:35.997Z,79.66
2019-05-01T00:21:10.786Z,80.05
2019-05-01T00:22:45.428Z,79.97
2019-05-01T00:24:20.094Z,80.06
2019-05-01T00:25:54.909Z,80.29
2019-05-01T00:27:29.701Z,80.55
2019-05-01T00:29:04.884Z,80.21
2019-05-01T00:30:39.646Z,80.07
2019-05-01T00:32:14.365Z,80.82
2019-05-01T00:33:49.053Z,80.63
2019-05-01T00:35:23.782Z,80.68
2019-05-01T00:36:58.425Z,80.77
2019-05-01T00:38:33.094Z,80.82
2019-05-01T00:40:08.112Z,80.48
2019-05-01T00:41:42.838Z,81.00
2019-05-01T00:43:17.575Z,81.33
2019-05-01T00:44:52.320Z,81.44
2019-05-01T00:46:26.947Z,81.57
2019-05-01T00:48:01.598Z,81.61
2019-05-01T00:49:36.254Z,81.95
2019-05-01T00:51:10.985Z,81.95
2019-05-01T00:52:45.629Z,82.20
2019-05-01T00:54:20.697Z,82.14
2019-05-01T00:56:20.264Z,81.72
2019-05-01T00:58:16.728Z,81.14
2019-05-01T01:00:19.687Z,81.79
2019-05-01T01:02:17.195Z,82.38
2019-05-01T01:03:52.229Z,81.59
2019-05-01T01:05:32.920Z,81.87
2019-05-01T01:07:07.883Z,81.93
2019-05-01T01:08:42.530Z,81.31
2019-05-01T01:10:17.326Z,81.71
2019-05-01T01:11:52.051Z,81.47
2019-05-01T01:13:26.746Z,81.35
2019-05-01T01:15:01.684Z,81.82
2019-05-01T01:16:36.506Z,82.14
2019-05-01T01:18:11.163Z,81.70
2019-05-01T01:19:45.807Z,81.92
2019-05-01T01:21:20.641Z,81.64
2019-05-01T01:22:55.376Z,81.58
2019-05-01T01:24:30.509Z,81.84
2019-05-01T01:26:05.231Z,81.49
2019-05-01T01:27:39.975Z,80.94
2019-05-01T01:29:15.792Z,81.68
2019-05-01T01:30:56.566Z,82.19
2019-05-01T01:32:27.138Z,81.52
2019-05-01T01:34:01.859Z,81.52
2019-05-01T01:35:36.584Z,81.80
2019-05-01T01:37:11.221Z,81.59
2019-05-01T01:38:45.969Z,82.33
2019-05-01T01:40:20.683Z,82.24
2019-05-01T01:41:56.790Z,82.36
2019-05-01T01:43:49.297Z,82.58
2019-05-01T01:45:31.029Z,82.77
2019-05-01T01:47:05.949Z,82.63
2019-05-01T01:48:40.864Z,81.82
2019-05-01T01:50:15.510Z,82.19
2019-05-01T01:51:50.345Z,81.57
2019-05-01T01:53:25.279Z,82.05
2019-05-01T01:54:59.968Z,82.01
2019-05-01T01:56:34.700Z,82.31
2019-05-01T01:58:09.451Z,81.58
2019-05-01T01:59:44.609Z,82.37
2019-05-01T02:01:34.599Z,82.23
2019-05-01T02:03:09.512Z,82.03
2019-05-01T02:05:12.285Z,82.01
2019-05-01T02:06:47.898Z,82.59
2019-05-01T02:08:22.617Z,82.26
2019-05-01T02:09:57.351Z,82.16
2019-05-01T02:11:32.483Z,82.19
2019-05-01T02:13:07.281Z,82.82
2019-05-01T02:14:42.105Z,82.09
2019-05-01T02:16:16.855Z,82.75
2019-05-01T02:17:51.515Z,81.65
2019-05-01T02:19:26.162Z,81.83
2019-05-01T02:21:00.831Z,81.76
2019-05-01T02:22:35.496Z,81.89
2019-05-01T02:24:10.217Z,82.70
2019-05-01T02:25:45.231Z,82.07
2019-05-01T02:27:25.676Z,82.35
2019-05-01T02:29:07.655Z,82.62
2019-05-01T02:30:45.758Z,82.16
2019-05-01T02:32:22.357Z,81.28
2019-05-01T02:33:57.334Z,81.95
2019-05-01T02:35:32.551Z,82.68
2019-05-01T02:37:08.737Z,82.48
2019-05-01T02:38:43.877Z,82.45
2019-05-01T02:40:59.197Z,82.45
2019-05-01T02:42:34.729Z,82.74
2019-05-01T02:44:15.173Z,82.47
2019-05-01T02:45:55.437Z,82.21
2019-05-01T02:47:32.535Z,81.15
2019-05-01T02:49:11.542Z,82.20
2019-05-01T02:50:48.349Z,81.81
2019-05-01T02:52:25.029Z,82.62
2019-05-01T02:54:00.861Z,82.26
2019-05-01T02:55:41.722Z,82.74
2019-05-01T02:57:19.096Z,82.62
2019-05-01T02:58:55.582Z,82.04
2019-05-01T03:00:30.493Z,82.02
2019-05-01T03:02:05.225Z,82.53
2019-05-01T03:03:39.917Z,82.81
2019-05-01T03:05:14.641Z,83.10
2019-05-01T03:06:49.565Z,82.44
2019-05-01T03:08:24.373Z,82.73
2019-05-01T03:09:59.459Z,83.28
2019-05-01T03:11:35.165Z,82.84
2019-05-01T03:13:10.001Z,82.96
2019-05-01T03:14:46.121Z,83.19
2019-05-01T03:16:21.435Z,82.59
2019-05-01T03:18:11.187Z,82.55
2019-05-01T03:19:51.302Z,81.89
2019-05-01T03:21:34.361Z,82.78
2019-05-01T03:23:28.136Z,82.39
2019-05-01T03:25:03.368Z,82.94
2019-05-01T03:26:38.482Z,82.42
2019-05-01T03:28:13.362Z,82.55
2019-05-01T03:29:48.282Z,82.27
2019-05-01T03:31:23.032Z,82.06
2019-05-01T03:32:57.785Z,81.58
2019-05-01T03:34:32.707Z,81.82
2019-05-01T03:36:07.638Z,82.66
2019-05-01T03:37:42.382Z,83.34
2019-05-01T03:39:18.704Z,82.67
2019-05-01T03:40:53.861Z,83.05
2019-05-01T03:42:28.852Z,83.21
2019-05-01T03:44:04.590Z,82.78
2019-05-01T03:45:39.597Z,82.91
2019-05-01T03:47:14.324Z,82.77
2019-05-01T03:48:49.142Z,82.90
2019-05-01T03:50:23.882Z,82.77
2019-05-01T03:51:58.861Z,83.08
2019-05-01T03:53:33.678Z,83.17
2019-05-01T03:55:08.500Z,82.58
2019-05-01T03:56:43.233Z,82.66
2019-05-01T03:58:18.434Z,82.13
2019-05-01T03:59:53.358Z,81.95
2019-05-01T04:01:44.388Z,81.77
2019-05-01T04:03:28.810Z,81.47
2019-05-01T04:05:04.113Z,81.19
2019-05-01T04:06:38.838Z,81.40
2019-05-01T04:08:13.647Z,81.73
2019-05-01T04:09:48.305Z,81.60
2019-05-01T04:11:23.333Z,81.44
2019-05-01T04:12:59.165Z,80.82
2019-05-01T04:14:34.126Z,81.59
2019-05-01T04:16:09.553Z,82.00
2019-05-01T04:17:49.315Z,81.67
2019-05-01T04:19:24.666Z,81.33
2019-05-01T04:20:59.369Z,81.33
2019-05-01T04:22:34.188Z,81.41
2019-05-01T04:24:08.862Z,80.88
2019-05-01T04:25:43.771Z,80.32
2019-05-01T04:27:26.841Z,80.60
2019-05-01T04:29:30.103Z,80.60
2019-05-01T04:31:26.910Z,80.12
2019-05-01T04:33:04.294Z,80.25
2019-05-01T04:34:44.655Z,80.32
2019-05-01T04:36:24.608Z,79.91
2019-05-01T04:37:59.683Z,79.91
2019-05-01T04:39:34.930Z,79.98
2019-05-01T04:41:09.580Z,79.94
2019-05-01T04:42:44.699Z,79.72
2019-05-01T04:44:19.434Z,79.61
2019-05-01T04:45:55.231Z,79.85
2019-05-01T04:47:30.039Z,79.68
2019-05-01T04:49:04.884Z,79.88
2019-05-01T04:50:39.606Z,79.66
2019-05-01T04:52:14.373Z,78.60
2019-05-01T04:53:49.090Z,78.80
2019-05-01T04:55:23.967Z,79.01
2019-05-01T04:56:58.862Z,79.05
2019-05-01T04:58:33.586Z,79.32
2019-05-01T05:00:08.291Z,79.17
2019-05-01T05:01:57.135Z,78.61
2019-05-01T05:03:31.120Z,79.21
2019-05-01T05:05:06.276Z,78.90
2019-05-01T05:06:41.092Z,78.46
2019-05-01T05:08:16.028Z,78.46
2019-05-01T05:09:50.848Z,78.09
2019-05-01T05:11:27.889Z,78.41
2019-05-01T05:13:15.260Z,78.45
2019-05-01T05:14:53.823Z,77.91
2019-05-01T05:16:51.408Z,78.21
2019-05-01T05:18:26.133Z,77.25
2019-05-01T05:20:00.824Z,77.94
2019-05-01T05:21:35.762Z,77.91
2019-05-01T05:23:10.687Z,76.97
2019-05-01T05:24:45.332Z,77.57
2019-05-01T05:26:20.138Z,77.78
2019-05-01T05:27:55.312Z,77.35
2019-05-01T05:29:30.021Z,77.16
2019-05-01T05:31:04.867Z,77.58
2019-05-01T05:32:41.078Z,77.86
2019-05-01T05:34:18.300Z,78.16
2019-05-01T05:35:53.764Z,78.18
2019-05-01T05:37:35.466Z,77.67
2019-05-01T05:39:16.902Z,77.63
2019-05-01T05:40:51.811Z,77.40
2019-05-01T05:42:26.745Z,77.75
2019-05-01T05:44:01.866Z,76.54
2019-05-01T05:45:36.721Z,76.54
2019-05-01T05:47:11.424Z,76.50
2019-05-01T05:48:46.452Z,76.56
2019-05-01T05:50:22.871Z,76.58
2019-05-01T05:52:17.676Z,75.63
2019-05-01T05:53:54.201Z,75.75
2019-05-01T05:55:34.437Z,74.68
2019-05-01T05:57:18.133Z,74.31
2019-05-01T05:58:56.177Z,74.07
2019-05-01T06:00:45.881Z,74.00
2019-05-01T06:02:40.283Z,72.39
2019-05-01T06:04:27.181Z,73.59
2019-05-01T06:06:07.882Z,74.68
2019-05-01T06:08:05.224Z,74.54
2019-05-01T06:09:49.673Z,73.62
2019-05-01T06:11:53.692Z,74.77
2019-05-01T06:13:57.490Z,74.55
2019-05-01T06:15:42.694Z,73.13
2019-05-01T06:17:42.354Z,73.63
2019-05-01T06:19:39.302Z,73.74
2019-05-01T06:21:20.394Z,74.44
2019-05-01T06:23:11.010Z,74.41
2019-05-01T06:24:48.859Z,73.50
2019-05-01T06:26:31.951Z,73.94
2019-05-01T06:28:04.662Z,73.94
2019-05-01T06:29:39.485Z,74.19
2019-05-01T06:31:23.289Z,72.58
2019-05-01T06:32:55.928Z,72.56
2019-05-01T06:34:30.580Z,72.17
2019-05-01T06:36:08.768Z,72.17
2019-05-01T06:38:03.512Z,72.87
2019-05-01T06:39:38.288Z,71.61
2019-05-01T06:41:13.551Z,71.92
2019-05-01T06:42:50.142Z,70.04
2019-05-01T06:44:39.133Z,64.60
2019-05-01T06:46:38.721Z,64.60
2019-05-01T06:48:17.785Z,67.73
2019-05-01T06:50:13.709Z,69.33
2019-05-01T06:51:55.179Z,68.79
2019-05-01T06:53:29.924Z,67.08
2019-05-01T06:55:05.114Z,67.12
2019-05-01T06:56:40.648Z,68.72
2019-05-01T06:58:20.362Z,67.97
2019-05-01T06:59:51.820Z,68.95
2019-05-01T07:01:26.650Z,68.95
2019-05-01T07:03:06.021Z,68.13
2019-05-01T07:04:39.669Z,68.13
2019-05-01T07:06:14.691Z,69.53
2019-05-01T07:07:53.146Z,69.29
2019-05-01T07:09:28.028Z,69.29
2019-05-01T07:11:05.573Z,69.46
2019-05-01T07:12:40.413Z,68.39
2019-05-01T07:14:16.207Z,68.44
2019-05-01T07:15:51.816Z,69.92
2019-05-01T07:17:26.651Z,69.82
2019-05-01T07:19:06.004Z,69.82
2019-05-01T07:20:51.348Z,68.90
2019-05-01T07:22:26.995Z,68.99
2019-05-01T07:24:01.808Z,68.68
2019-05-01T07:25:39.346Z,67.19
2019-05-01T07:27:13.030Z,66.36
2019-05-01T07:28:49.322Z,66.18
2019-05-01T07:30:41.593Z,65.93
2019-05-01T07:32:16.364Z,65.54
2019-05-01T07:33:52.370Z,65.54
2019-05-01T07:35:27.492Z,63.99
2019-05-01T07:37:02.719Z,64.10
2019-05-01T07:38:40.474Z,63.70
2019-05-01T07:40:15.480Z,63.80
2019-05-01T07:41:50.231Z,63.22
2019-05-01T07:43:47.169Z,63.39
2019-05-01T07:45:39.044Z,63.39
2019-05-01T07:47:25.866Z,63.70
2019-05-01T07:49:01.352Z,63.76
2019-05-01T07:50:36.251Z,62.26
2019-05-01T07:52:12.579Z,60.92
2019-05-01T07:53:47.738Z,60.81
2019-05-01T07:55:36.071Z,61.74
2019-05-01T07:57:10.831Z,57.86
2019-05-01T07:58:47.524Z,43.48
2019-05-01T08:00:41.499Z,50.19
2019-05-01T08:02:16.272Z,49.47
2019-05-01T08:03:50.915Z,42.47
2019-05-01T08:05:25.638Z,43.60
2019-05-01T08:07:00.462Z,42.28
2019-05-01T08:08:39.803Z,44.21
2019-05-01T08:10:12.890Z,40.37
2019-05-01T08:11:47.561Z,47.67
2019-05-01T08:13:22.215Z,45.71
2019-05-01T08:14:56.876Z,36.60
2019-05-01T08:16:31.632Z,37.06
2019-05-01T08:18:16.417Z,32.21
2019-05-01T08:19:58.605Z,32.78
2019-05-01T08:21:46.281Z,32.13
2019-05-01T08:23:21.030Z,33.28
2019-05-01T08:24:58.644Z,32.39
2019-05-01T08:26:32.145Z,33.71
2019-05-01T08:28:18.914Z,36.30
2019-05-01T08:30:12.810Z,34.16
2019-05-01T08:31:58.729Z,37.22
2019-05-01T08:33:54.203Z,33.31
2019-05-01T08:35:31.740Z,35.33
2019-05-01T08:37:06.600Z,38.81
2019-05-01T08:38:41.442Z,39.35
2019-05-01T08:40:20.495Z,43.12
2019-05-01T08:41:52.754Z,43.24
2019-05-01T08:43:27.387Z,44.67
2019-05-01T08:45:42.385Z,42.82
2019-05-01T08:47:27.569Z,42.69
2019-05-01T08:49:42.247Z,43.29
2019-05-01T08:51:16.182Z,41.91
2019-05-01T08:52:50.911Z,41.22
2019-05-01T08:54:29.013Z,41.48
2019-05-01T08:56:01.895Z,42.30
2019-05-01T08:57:39.294Z,43.73
2019-05-01T08:59:13.376Z,42.93
2019-05-01T09:00:48.036Z,43.92
2019-05-01T09:02:22.668Z,42.09
2019-05-01T09:03:57.403Z,42.76
2019-05-01T09:05:33.895Z,41.85
2019-05-01T09:07:08.469Z,42.33
2019-05-01T09:08:43.111Z,42.62
2019-05-01T09:10:21.751Z,40.66
2019-05-01T09:11:54.743Z,43.01
2019-05-01T09:13:29.527Z,44.94
2019-05-01T09:15:07.168Z,42.07
2019-05-01T09:16:41.199Z,43.93
2019-05-01T09:18:18.730Z,42.75
2019-05-01T09:19:52.199Z,43.85
2019-05-01T09:21:27.834Z,42.76
2019-05-01T09:23:02.556Z,44.13
2019-05-01T09:24:37.209Z,44.30
2019-05-01T09:26:23.258Z,41.12
2019-05-01T09:28:05.946Z,42.35
2019-05-01T09:29:46.902Z,41.13
2019-05-01T09:31:24.252Z,42.56
2019-05-01T09:32:59.016Z,41.96
2019-05-01T09:34:33.833Z,42.40
2019-05-01T09:36:08.480Z,43.87
2019-05-01T09:37:43.204Z,43.53
2019-05-01T09:39:19.583Z,43.36
2019-05-01T09:40:54.607Z,42.21
2019-05-01T09:42:29.327Z,41.96
2019-05-01T09:44:05.911Z,40.72
2019-05-01T09:45:40.715Z,41.99
2019-05-01T09:47:15.452Z,39.63
2019-05-01T09:48:50.207Z,42.14
2019-05-01T09:50:25.881Z,40.28
2019-05-01T09:52:23.290Z,42.89
2019-05-01T09:54:05.611Z,42.82
2019-05-01T09:55:47.905Z,43.01
2019-05-01T09:57:22.557Z,42.72
2019-05-01T09:58:57.218Z,42.56
2019-05-01T10:00:32.829Z,43.60
2019-05-01T10:02:09.119Z,42.94
2019-05-01T10:03:44.932Z,44.17
2019-05-01T10:05:28.616Z,43.20
2019-05-01T10:06:56.197Z,42.45
2019-05-01T10:08:34.835Z,41.59
2019-05-01T10:10:07.914Z,40.98
2019-05-01T10:11:42.971Z,41.98
2019-05-01T10:13:22.228Z,43.55
2019-05-01T10:14:54.026Z,43.22
2019-05-01T10:16:29.680Z,43.04
2019-05-01T10:18:04.350Z,43.23
2019-05-01T10:19:39.014Z,43.77
2019-05-01T10:21:13.730Z,41.42
2019-05-01T10:22:48.457Z,44.54
2019-05-01T10:24:23.132Z,44.62
2019-05-01T10:25:59.432Z,42.65
2019-05-01T10:27:37.388Z,44.54
2019-05-01T10:29:30.055Z,43.66
2019-05-01T10:31:11.879Z,44.27
2019-05-01T10:35:42.462Z,43.93
2019-05-01T10:37:08.721Z,44.51
2019-05-01T10:38:44.951Z,44.63
2019-05-01T10:40:22.326Z,45.66
2019-05-01T10:41:56.340Z,45.06
2019-05-01T10:43:30.994Z,45.14
2019-05-01T10:45:06.021Z,44.64
2019-05-01T10:46:40.687Z,44.45
2019-05-01T10:48:15.333Z,45.80
2019-05-01T10:49:50.075Z,46.44
2019-05-01T10:51:24.816Z,45.90
2019-05-01T10:52:59.508Z,46.18
2019-05-01T10:54:34.163Z,46.26
2019-05-01T10:56:08.917Z,45.74
2019-05-01T10:59:55.998Z,48.08
2019-05-01T11:01:38.294Z,48.67
2019-05-01T11:03:13.055Z,48.49
2019-05-01T11:04:47.790Z,48.35
2019-05-01T11:06:22.579Z,50.21
2019-05-01T11:07:57.175Z,50.86
2019-05-01T11:09:31.845Z,50.37
2019-05-01T11:11:06.484Z,50.94
2019-05-01T11:12:41.162Z,50.32
2019-05-01T11:14:15.904Z,49.88
2019-05-01T11:15:50.557Z,49.95
2019-05-01T11:17:25.294Z,49.90
2019-05-01T11:18:59.989Z,49.20
2019-05-01T11:20:34.637Z,50.62
2019-05-01T11:22:09.300Z,50.84
2019-05-01T11:23:44.018Z,48.02
2019-05-01T11:25:20.485Z,48.61
2019-05-01T11:26:55.214Z,49.28
2019-05-01T11:28:29.882Z,49.53
2019-05-01T11:30:05.650Z,50.23
2019-05-01T11:32:02.197Z,50.57
2019-05-01T11:33:54.613Z,50.08
2019-05-01T11:35:48.348Z,48.69
2019-05-01T11:37:42.117Z,49.52
2019-05-01T11:39:26.090Z,48.85
2019-05-01T11:41:04.467Z,49.33
2019-05-01T11:42:39.114Z,49.24
2019-05-01T11:44:13.784Z,50.86
2019-05-01T11:45:48.545Z,51.21
2019-05-01T11:47:23.261Z,51.52
2019-05-01T11:48:57.913Z,50.29
2019-05-01T11:50:32.550Z,50.47
2019-05-01T11:52:07.300Z,51.25
2019-05-01T11:53:41.990Z,51.16
2019-05-01T11:55:16.659Z,51.50
2019-05-01T11:56:51.349Z,51.57
2019-05-01T11:58:25.997Z,51.98
2019-05-01T12:00:00.718Z,51.58
2019-05-01T12:01:35.441Z,51.25
2019-05-01T12:03:10.100Z,50.42
2019-05-01T12:04:44.746Z,51.26
2019-05-01T12:06:22.938Z,51.13
2019-05-01T12:07:56.103Z,51.04
2019-05-01T12:09:30.774Z,51.22
2019-05-01T12:11:06.876Z,50.59
2019-05-01T12:12:41.551Z,50.87
2019-05-01T12:14:16.219Z,51.85
2019-05-01T12:15:57.078Z,51.31
2019-05-01T12:17:40.890Z,52.12
2019-05-01T12:19:15.599Z,51.36
2019-05-01T12:20:50.248Z,51.21
2019-05-01T12:22:24.925Z,51.54
2019-05-01T12:23:59.566Z,51.49
2019-05-01T12:25:34.254Z,52.10
2019-05-01T12:27:08.888Z,52.11
2019-05-01T12:28:44.685Z,52.18
2019-05-01T12:30:19.619Z,51.87
2019-05-01T12:31:54.262Z,52.29
2019-05-01T12:33:28.931Z,52.52
2019-05-01T12:35:03.757Z,52.17
2019-05-01T12:36:39.465Z,50.69
2019-05-01T12:38:14.182Z,51.15
2019-05-01T12:39:48.830Z,50.00
2019-05-01T12:41:44.085Z,51.09
2019-05-01T12:43:18.785Z,51.80
2019-05-01T12:44:53.429Z,52.02
2019-05-01T12:46:46.255Z,51.39
2019-05-01T12:48:35.121Z,50.65
2019-05-01T12:50:10.054Z,50.63
2019-05-01T12:51:46.345Z,50.08
2019-05-01T12:53:25.425Z,49.29
2019-05-01T12:55:05.324Z,49.92
2019-05-01T12:56:48.256Z,50.22
2019-05-01T12:58:23.033Z,50.61
2019-05-01T13:00:08.075Z,50.29
2019-05-01T13:01:34.141Z,50.87
2019-05-01T13:03:10.034Z,50.82
2019-05-01T13:04:44.700Z,50.81
2019-05-01T13:06:20.366Z,51.45
2019-05-01T13:07:55.238Z,51.86
2019-05-01T13:09:29.921Z,52.28
2019-05-01T13:11:04.831Z,51.70
2019-05-01T13:12:39.485Z,51.69
2019-05-01T13:14:14.147Z,51.60
2019-05-01T13:15:49.775Z,51.46
2019-05-01T13:17:25.213Z,50.94
2019-05-01T13:18:59.865Z,51.42
2019-05-01T13:20:34.539Z,51.26
2019-05-01T13:22:09.205Z,50.92
2019-05-01T13:23:43.877Z,50.76
2019-05-01T13:25:18.599Z,50.92
2019-05-01T13:27:06.196Z,50.91
2019-05-01T13:28:50.975Z,50.22
2019-05-01T13:30:37.841Z,51.25
2019-05-01T13:32:30.391Z,50.98
2019-05-01T13:34:05.318Z,51.14
2019-05-01T13:35:39.971Z,51.10
2019-05-01T13:37:14.619Z,51.49
2019-05-01T13:38:49.347Z,51.44
2019-05-01T13:40:24.059Z,51.18
2019-05-01T13:41:58.742Z,50.97
2019-05-01T13:43:33.418Z,50.97
2019-05-01T13:45:08.884Z,51.41
2019-05-01T13:46:43.557Z,51.31
2019-05-01T13:48:18.189Z,51.54
2019-05-01T13:49:52.927Z,51.75
2019-05-01T13:51:27.661Z,51.55
2019-05-01T13:53:02.316Z,51.62
2019-05-01T13:54:36.983Z,51.50
2019-05-01T13:56:11.723Z,52.67
2019-05-01T13:57:46.369Z,52.35
2019-05-01T13:59:21.040Z,52.45
2019-05-01T14:00:55.716Z,52.27
2019-05-01T14:02:30.419Z,50.95
2019-05-01T14:04:05.124Z,50.72
2019-05-01T14:05:41.178Z,50.68
2019-05-01T14:07:17.027Z,51.14
2019-05-01T14:08:52.789Z,51.77
2019-05-01T14:10:27.513Z,51.77
2019-05-01T14:12:02.180Z,51.68
2019-05-01T14:13:36.839Z,51.90
2019-05-01T14:15:11.991Z,52.20
2019-05-01T14:16:46.640Z,52.21
2019-05-01T14:18:21.394Z,52.12
2019-05-01T14:20:02.569Z,52.12
2019-05-01T14:21:45.954Z,51.85
2019-05-01T14:23:40.510Z,52.08
2019-05-01T14:25:15.306Z,52.61
2019-05-01T14:26:50.440Z,52.66
2019-05-01T14:28:25.379Z,53.06
2019-05-01T14:30:00.059Z,52.78
2019-05-01T14:31:34.718Z,52.87
2019-05-01T14:33:09.369Z,52.45
2019-05-01T14:34:44.033Z,52.87
2019-05-01T14:36:18.681Z,53.06
2019-05-01T14:37:53.368Z,53.06
2019-05-01T14:39:28.041Z,52.53
2019-05-01T14:41:02.690Z,52.38
2019-05-01T14:42:37.415Z,52.56
2019-05-01T14:44:12.154Z,52.04
2019-05-01T14:45:46.823Z,52.18
2019-05-01T14:47:21.483Z,51.90
2019-05-01T14:49:09.160Z,52.62
2019-05-01T14:50:43.802Z,52.62
2019-05-01T14:52:18.454Z,52.31
2019-05-01T14:53:53.475Z,52.08
2019-05-01T14:55:28.121Z,52.21
2019-05-01T14:57:02.805Z,52.37
2019-05-01T14:58:37.556Z,52.77
2019-05-01T15:00:12.840Z,52.70
2019-05-01T15:01:47.721Z,53.18
2019-05-01T15:03:22.406Z,53.08
2019-05-01T15:04:57.129Z,52.92
2019-05-01T15:06:31.798Z,52.48
2019-05-01T15:08:06.519Z,52.81
2019-05-01T15:09:41.185Z,52.29
2019-05-01T15:11:15.851Z,53.20
2019-05-01T15:12:52.401Z,53.20
2019-05-01T15:14:48.832Z,52.64
2019-05-01T15:16:31.542Z,52.83
2019-05-01T15:18:11.616Z,52.91
2019-05-01T15:19:50.771Z,52.91
2019-05-01T15:21:25.516Z,52.98
2019-05-01T15:23:00.190Z,53.02
2019-05-01T15:24:34.941Z,53.10
2019-05-01T15:26:09.630Z,53.16
2019-05-01T15:27:44.279Z,53.02
2019-05-01T15:29:18.917Z,52.83
2019-05-01T15:30:53.749Z,53.43
2019-05-01T15:32:28.466Z,53.61
2019-05-01T15:34:03.337Z,53.14
2019-05-01T15:35:38.079Z,53.51
2019-05-01T15:37:12.747Z,53.29
2019-05-01T15:38:47.703Z,53.25
2019-05-01T15:40:43.596Z,53.53
2019-05-01T15:42:40.918Z,53.99
2019-05-01T15:44:19.631Z,54.33
2019-05-01T15:45:54.382Z,54.86
2019-05-01T15:47:29.036Z,54.01
2019-05-01T15:49:07.553Z,54.19
2019-05-01T15:50:44.743Z,53.40
2019-05-01T15:52:18.549Z,53.38
2019-05-01T15:53:53.218Z,54.04
2019-05-01T15:55:27.913Z,54.12
2019-05-01T15:57:02.570Z,54.91
2019-05-01T15:58:37.251Z,54.87
2019-05-01T16:00:15.146Z,54.89
2019-05-01T16:01:49.948Z,54.21
2019-05-01T16:03:24.613Z,54.52
2019-05-01T16:04:59.284Z,54.26
2019-05-01T16:06:33.945Z,53.88
2019-05-01T16:08:09.791Z,54.23
2019-05-01T16:09:44.872Z,54.37
2019-05-01T16:11:41.427Z,54.46
2019-05-01T16:13:16.133Z,55.31
2019-05-01T16:14:51.692Z,55.21
2019-05-01T16:16:26.413Z,55.39
2019-05-01T16:18:01.172Z,55.65
2019-05-01T16:19:35.821Z,55.71
2019-05-01T16:21:10.484Z,55.71
2019-05-01T16:22:45.164Z,56.11
2019-05-01T16:24:19.907Z,55.93
2019-05-01T16:25:54.586Z,55.46
2019-05-01T16:27:29.293Z,55.59
2019-05-01T16:29:04.026Z,56.50
2019-05-01T16:30:38.667Z,56.19
2019-05-01T16:32:13.332Z,56.07
2019-05-01T16:33:48.062Z,56.07
2019-05-01T16:35:22.769Z,56.52
2019-05-01T16:36:57.546Z,55.90
2019-05-01T16:38:47.887Z,56.33
2019-05-01T16:40:45.304Z,56.14
2019-05-01T16:42:21.506Z,57.19
2019-05-01T16:43:56.198Z,56.65
2019-05-01T16:45:30.823Z,56.60
2019-05-01T16:47:05.548Z,56.92
2019-05-01T16:48:41.390Z,57.23
2019-05-01T16:50:16.158Z,57.22
2019-05-01T16:51:50.824Z,57.33
2019-05-01T16:53:25.598Z,57.68
2019-05-01T16:55:00.471Z,57.54
2019-05-01T16:56:35.276Z,57.39
2019-05-01T16:58:13.398Z,57.74
2019-05-01T16:59:48.102Z,58.05
2019-05-01T17:01:34.066Z,58.11
2019-05-01T17:03:15.923Z,58.07
2019-05-01T17:05:18.350Z,58.41
2019-05-01T17:06:59.814Z,58.27
2019-05-01T17:08:40.974Z,58.48
2019-05-01T17:10:18.754Z,58.48
2019-05-01T17:11:53.422Z,59.06
2019-05-01T17:13:28.204Z,59.22
2019-05-01T17:15:03.544Z,59.22
2019-05-01T17:16:38.371Z,60.14
2019-05-01T17:18:13.932Z,59.69
2019-05-01T17:19:48.601Z,59.30
2019-05-01T17:21:23.251Z,58.93
2019-05-01T17:22:57.906Z,59.15
2019-05-01T17:24:32.615Z,59.05
2019-05-01T17:26:07.336Z,59.47
2019-05-01T17:27:42.092Z,60.01
2019-05-01T17:29:16.741Z,60.10
2019-05-01T17:30:56.540Z,60.99
2019-05-01T17:32:31.287Z,61.16
2019-05-01T17:34:05.951Z,60.84
2019-05-01T17:35:43.136Z,60.96
2019-05-01T17:37:18.012Z,61.53
2019-05-01T17:38:52.768Z,61.59
2019-05-01T17:40:27.469Z,61.76
2019-05-01T17:42:03.375Z,61.38
2019-05-01T17:43:38.120Z,61.77
2019-05-01T17:45:13.144Z,62.04
2019-05-01T17:46:48.660Z,61.91
2019-05-01T17:48:23.368Z,62.06
2019-05-01T17:49:58.044Z,62.04
2019-05-01T17:51:32.718Z,62.50
2019-05-01T17:53:07.551Z,63.07
2019-05-01T17:54:42.287Z,63.08
2019-05-01T17:56:21.858Z,63.21
2019-05-01T17:57:53.652Z,62.74
2019-05-01T17:59:28.386Z,63.23
2019-05-01T18:01:27.792Z,63.23
2019-05-01T18:03:08.100Z,63.39
2019-05-01T18:04:53.315Z,63.36
2019-05-01T18:06:30.619Z,63.54
2019-05-01T18:08:06.480Z,63.22
2019-05-01T18:09:41.170Z,63.39
2019-05-01T18:11:16.092Z,63.57
2019-05-01T18:12:50.800Z,63.76
2019-05-01T18:14:25.512Z,64.19
2019-05-01T18:16:00.232Z,64.06
2019-05-01T18:17:34.908Z,64.32
2019-05-01T18:19:10.414Z,64.52
2019-05-01T18:20:45.444Z,64.34
2019-05-01T18:22:45.159Z,64.36
2019-05-01T18:24:42.917Z,65.02
2019-05-01T18:26:30.613Z,65.14
2019-05-01T18:28:25.009Z,65.14
2019-05-01T18:30:01.582Z,65.56
2019-05-01T18:31:36.480Z,65.74
2019-05-01T18:33:11.260Z,65.77
2019-05-01T18:34:46.015Z,65.77
2019-05-01T18:36:24.530Z,66.13
2019-05-01T18:38:19.324Z,66.13
2019-05-01T18:39:54.328Z,66.42
2019-05-01T18:41:56.986Z,66.83
2019-05-01T18:43:32.068Z,66.75
2019-05-01T18:45:10.096Z,66.82
2019-05-01T18:46:44.971Z,66.99
2019-05-01T18:48:20.229Z,66.99
2019-05-01T18:49:54.894Z,67.63
2019-05-01T18:51:29.567Z,67.23
2019-05-01T18:53:06.867Z,67.53
2019-05-01T18:54:40.740Z,67.53
2019-05-01T18:56:15.464Z,67.37
2019-05-01T18:57:50.192Z,67.89
2019-05-01T18:59:24.943Z,67.89
2019-05-01T19:01:03.951Z,67.84
2019-05-01T19:02:38.971Z,67.96
2019-05-01T19:04:13.645Z,67.96
2019-05-01T19:05:48.435Z,68.32
2019-05-01T19:07:23.062Z,68.61
2019-05-01T19:08:57.912Z,68.61
2019-05-01T19:10:32.661Z,68.66
2019-05-01T19:12:09.391Z,68.93
2019-05-01T19:13:44.066Z,69.10
2019-05-01T19:15:18.784Z,69.10
2019-05-01T19:16:55.868Z,69.13
2019-05-01T19:18:30.521Z,69.20
2019-05-01T19:20:05.613Z,69.57
2019-05-01T19:21:41.820Z,69.48
2019-05-01T19:23:17.509Z,69.97
2019-05-01T19:24:52.255Z,70.01
2019-05-01T19:26:26.972Z,69.99
2019-05-01T19:28:12.194Z,70.49
2019-05-01T19:29:46.858Z,70.72
2019-05-01T19:31:21.591Z,71.08
2019-05-01T19:32:56.497Z,71.34
2019-05-01T19:34:31.127Z,71.34
2019-05-01T19:36:08.246Z,71.45
2019-05-01T19:37:42.592Z,71.45
2019-05-01T19:39:17.540Z,71.59
2019-05-01T19:40:52.297Z,71.89
2019-05-01T19:42:27.002Z,71.89
2019-05-01T19:44:01.623Z,72.53
2019-05-01T19:45:36.395Z,72.35
2019-05-01T19:47:11.130Z,72.80
2019-05-01T19:48:50.721Z,73.14
2019-05-01T19:50:22.270Z,73.34
2019-05-01T19:52:04.041Z,73.34
2019-05-01T19:53:46.455Z,73.31
2019-05-01T19:55:31.936Z,73.79
2019-05-01T19:57:06.865Z,73.71
2019-05-01T19:58:41.545Z,73.71
2019-05-01T20:00:22.909Z,74.25
2019-05-01T20:01:57.621Z,74.30
2019-05-01T20:03:36.127Z,74.16
2019-05-01T20:05:11.106Z,74.15
2019-05-01T20:06:45.627Z,74.15
2019-05-01T20:08:20.589Z,74.17
2019-05-01T20:09:56.954Z,74.18
2019-05-01T20:11:32.173Z,74.52
2019-05-01T20:13:11.815Z,74.74
2019-05-01T20:14:43.547Z,74.81
2019-05-01T20:16:18.900Z,75.16
2019-05-01T20:17:53.543Z,74.78
2019-05-01T20:19:28.474Z,75.02
2019-05-01T20:21:03.159Z,75.16
2019-05-01T20:22:38.019Z,75.52
2019-05-01T20:24:19.419Z,75.36
2019-05-01T20:25:55.919Z,75.36
2019-05-01T20:27:30.573Z,75.70
2019-05-01T20:29:07.783Z,75.87
2019-05-01T20:30:41.776Z,75.87
2019-05-01T20:32:21.023Z,75.68
2019-05-01T20:33:53.191Z,76.12
2019-05-01T20:35:28.367Z,76.08
2019-05-01T20:37:04.241Z,76.67
2019-05-01T20:38:38.887Z,76.48
2019-05-01T20:40:13.999Z,76.50
2019-05-01T20:41:48.718Z,76.83
2019-05-01T20:43:23.386Z,76.83
2019-05-01T20:45:05.643Z,76.91
2019-05-01T20:46:34.358Z,77.21
2019-05-01T20:48:09.022Z,76.79
2019-05-01T20:49:43.740Z,76.75
2019-05-01T20:51:20.125Z,76.75
2019-05-01T20:52:54.726Z,77.05
2019-05-01T20:54:29.463Z,76.86
2019-05-01T20:56:20.325Z,77.42
2019-05-01T20:58:14.082Z,77.44
2019-05-01T20:59:48.807Z,77.73
2019-05-01T21:01:24.369Z,78.21
2019-05-01T21:03:01.358Z,78.05